createdAt,value
2019-05-20T00:00:25.076Z,15.79
2019-05-20T00:01:25.082Z,15.84
2019-05-20T00:02:28.372Z,15.85
2019-05-20T00:03:25.105Z,15.89
2019-05-20T00:04:25.121Z,15.81
2019-05-20T00:05:25.205Z,15.86
2019-05-20T00:06:25.131Z,15.86
2019-05-20T00:07:25.135Z,15.85
2019-05-20T00:08:25.148Z,15.81
2019-05-20T00:09:25.161Z,15.68
2019-05-20T00:10:25.165Z,15.76
2019-05-20T00:11:25.175Z,15.67
2019-05-20T00:12:25.186Z,15.64
2019-05-20T00:13:25.192Z,15.52
2019-05-20T00:14:25.200Z,15.48
2019-05-20T00:15:25.214Z,15.41
2019-05-20T00:16:25.224Z,15.48
2019-05-20T00:17:25.247Z,15.49
2019-05-20T00:18:25.251Z,15.49
2019-05-20T00:19:25.259Z,15.45
2019-05-20T00:20:25.257Z,15.41
2019-05-20T00:21:25.268Z,15.48
2019-05-20T00:22:25.277Z,15.41
2019-05-20T00:23:25.278Z,15.39
2019-05-20T00:24:25.372Z,15.43
2019-05-20T00:25:25.304Z,15.43
2019-05-20T00:26:25.311Z,15.45
2019-05-20T00:27:25.329Z,15.49
2019-05-20T00:28:25.327Z,15.49
2019-05-20T00:29:25.337Z,15.56
2019-05-20T00:30:25.347Z,15.52
2019-05-20T00:31:25.358Z,15.57
2019-05-20T00:32:40.319Z,15.61
2019-05-20T00:33:25.377Z,15.67
2019-05-20T00:34:34.645Z,15.68
2019-05-20T00:35:25.392Z,15.68
2019-05-20T00:36:25.403Z,15.75
2019-05-20T00:37:25.415Z,15.68
2019-05-20T00:38:25.415Z,15.70
2019-05-20T00:39:25.429Z,15.66
2019-05-20T00:40:25.443Z,15.79
2019-05-20T00:41:25.447Z,15.82
2019-05-20T00:42:25.460Z,15.75
2019-05-20T00:43:25.471Z,15.76
2019-05-20T00:44:25.474Z,15.86
2019-05-20T00:45:25.486Z,15.74
2019-05-20T00:46:25.498Z,15.74
2019-05-20T00:47:25.503Z,15.76
2019-05-20T00:48:25.511Z,15.76
2019-05-20T00:49:25.519Z,15.76
2019-05-20T00:50:25.530Z,15.75
2019-05-20T00:51:25.538Z,15.72
2019-05-20T00:52:25.545Z,15.74
2019-05-20T00:53:25.558Z,15.67
2019-05-20T00:54:25.567Z,15.70
2019-05-20T00:55:25.577Z,15.64
2019-05-20T00:56:25.584Z,15.66
2019-05-20T00:57:25.603Z,15.57
2019-05-20T00:58:25.600Z,15.59
2019-05-20T00:59:25.624Z,15.68
2019-05-20T01:00:25.620Z,15.61
2019-05-20T01:01:25.629Z,15.60
2019-05-20T01:02:25.640Z,15.63
2019-05-20T01:03:25.651Z,15.52
2019-05-20T01:04:25.663Z,15.52
2019-05-20T01:05:25.674Z,15.59
2019-05-20T01:06:25.679Z,15.51
2019-05-20T01:07:25.684Z,15.61
2019-05-20T01:08:25.703Z,15.61
2019-05-20T01:09:25.716Z,15.60
2019-05-20T01:10:25.711Z,15.57
2019-05-20T01:11:25.722Z,15.64
2019-05-20T01:12:25.729Z,15.60
2019-05-20T01:13:25.736Z,15.66
2019-05-20T01:14:25.752Z,15.64
2019-05-20T01:15:25.760Z,15.63
2019-05-20T01:16:25.774Z,15.56
2019-05-20T01:17:25.775Z,15.66
2019-05-20T01:18:25.786Z,15.68
2019-05-20T01:19:25.798Z,15.66
2019-05-20T01:20:25.806Z,15.64
2019-05-20T01:21:25.811Z,15.60
2019-05-20T01:22:25.823Z,15.64
2019-05-20T01:23:25.832Z,15.57
2019-05-20T01:24:25.842Z,15.64
2019-05-20T01:25:25.853Z,15.74
2019-05-20T01:26:25.859Z,15.72
2019-05-20T01:27:25.879Z,15.68
2019-05-20T01:28:25.872Z,15.66
2019-05-20T01:29:25.885Z,15.70
2019-05-20T01:30:25.899Z,15.70
2019-05-20T01:31:25.907Z,15.72
2019-05-20T01:32:25.911Z,15.70
2019-05-20T01:33:25.922Z,15.76
2019-05-20T01:34:25.936Z,15.78
2019-05-20T01:35:25.946Z,15.75
2019-05-20T01:36:25.955Z,15.76
2019-05-20T01:37:25.964Z,15.74
2019-05-20T01:38:25.964Z,15.75
2019-05-20T01:39:25.992Z,15.79
2019-05-20T01:40:25.986Z,15.82
2019-05-20T01:41:25.998Z,15.81
2019-05-20T01:42:26.003Z,15.75
2019-05-20T01:43:26.014Z,15.89
2019-05-20T01:44:26.032Z,15.85
2019-05-20T01:45:26.038Z,15.84
2019-05-20T01:46:26.051Z,15.86
2019-05-20T01:47:26.052Z,15.92
2019-05-20T01:48:26.061Z,15.86
2019-05-20T01:49:26.068Z,15.96
2019-05-20T01:50:26.087Z,15.97
2019-05-20T01:51:26.089Z,15.94
2019-05-20T01:52:26.097Z,15.86
2019-05-20T01:53:26.109Z,15.92
2019-05-20T01:54:26.113Z,16.03
2019-05-20T01:55:26.128Z,15.97
2019-05-20T01:56:26.131Z,15.96
2019-05-20T01:57:26.137Z,15.96
2019-05-20T01:58:26.146Z,16.03
2019-05-20T01:59:26.156Z,15.99
2019-05-20T02:00:26.173Z,16.03
2019-05-20T02:01:26.180Z,16.00
2019-05-20T02:02:26.187Z,15.96
2019-05-20T02:03:31.815Z,16.00
2019-05-20T02:04:26.210Z,15.97
2019-05-20T02:05:26.220Z,16.01
2019-05-20T02:06:26.231Z,16.01
2019-05-20T02:07:26.234Z,16.03
2019-05-20T02:08:26.244Z,15.99
2019-05-20T02:09:26.253Z,15.94
2019-05-20T02:10:26.262Z,15.94
2019-05-20T02:11:26.286Z,16.01
2019-05-20T02:12:26.283Z,15.97
2019-05-20T02:13:26.288Z,16.04
2019-05-20T02:14:26.306Z,15.99
2019-05-20T02:15:26.312Z,16.00
2019-05-20T02:16:26.325Z,16.00
2019-05-20T02:17:26.329Z,15.99
2019-05-20T02:18:26.340Z,16.00
2019-05-20T02:19:26.345Z,16.03
2019-05-20T02:20:26.359Z,15.93
2019-05-20T02:21:26.364Z,15.99
2019-05-20T02:22:26.379Z,16.00
2019-05-20T02:23:26.388Z,15.96
2019-05-20T02:24:26.394Z,15.92
2019-05-20T02:25:26.399Z,15.96
2019-05-20T02:26:26.410Z,15.89
2019-05-20T02:27:26.431Z,15.85
2019-05-20T02:28:26.428Z,15.99
2019-05-20T02:29:26.438Z,15.92
2019-05-20T02:30:26.452Z,15.96
2019-05-20T02:31:26.455Z,15.96
2019-05-20T02:32:26.481Z,15.92
2019-05-20T02:33:26.475Z,15.88
2019-05-20T02:34:26.485Z,15.79
2019-05-20T02:35:26.497Z,15.75
2019-05-20T02:36:26.504Z,15.66
2019-05-20T02:37:26.514Z,15.56
2019-05-20T02:38:26.524Z,15.45
2019-05-20T02:39:26.953Z,15.45
2019-05-20T02:40:26.536Z,15.41
2019-05-20T02:41:26.553Z,15.38
2019-05-20T02:42:26.590Z,15.21
2019-05-20T02:43:26.566Z,15.19
2019-05-20T02:44:26.575Z,15.26
2019-05-20T02:45:26.581Z,15.24
2019-05-20T02:46:26.596Z,15.19
2019-05-20T02:47:26.603Z,15.20
2019-05-20T02:48:26.613Z,15.13
2019-05-20T02:49:26.625Z,14.99
2019-05-20T02:50:26.630Z,14.87
2019-05-20T02:51:26.641Z,14.74
2019-05-20T02:52:26.658Z,14.80
2019-05-20T02:53:26.661Z,14.83
2019-05-20T02:54:26.671Z,14.61
2019-05-20T02:55:26.676Z,14.62
2019-05-20T02:56:26.682Z,14.68
2019-05-20T02:57:26.694Z,14.72
2019-05-20T02:58:26.704Z,14.74
2019-05-20T02:59:26.711Z,14.78
2019-05-20T03:00:26.717Z,14.69
2019-05-20T03:01:26.725Z,14.75
2019-05-20T03:02:26.736Z,14.80
2019-05-20T03:03:26.747Z,14.74
2019-05-20T03:04:26.762Z,14.74
2019-05-20T03:05:26.763Z,14.81
2019-05-20T03:06:26.772Z,14.80
2019-05-20T03:07:26.777Z,14.72
2019-05-20T03:08:26.790Z,14.69
2019-05-20T03:09:26.799Z,14.74
2019-05-20T03:10:26.807Z,14.69
2019-05-20T03:11:26.817Z,14.86
2019-05-20T03:12:26.825Z,14.87
2019-05-20T03:13:26.835Z,14.91
2019-05-20T03:14:26.838Z,14.88
2019-05-20T03:15:26.853Z,14.90
2019-05-20T03:16:26.864Z,14.95
2019-05-20T03:17:26.870Z,15.03
2019-05-20T03:18:26.888Z,15.01
2019-05-20T03:19:26.888Z,15.15
2019-05-20T03:20:26.892Z,15.05
2019-05-20T03:21:26.898Z,15.02
2019-05-20T03:22:26.914Z,15.13
2019-05-20T03:23:26.920Z,14.98
2019-05-20T03:24:26.928Z,15.12
2019-05-20T03:25:26.940Z,15.08
2019-05-20T03:26:26.942Z,15.15
2019-05-20T03:27:26.957Z,15.11
2019-05-20T03:28:26.966Z,15.26
2019-05-20T03:29:26.973Z,15.12
2019-05-20T03:30:26.983Z,15.26
2019-05-20T03:31:26.997Z,15.26
2019-05-20T03:32:27.003Z,15.26
2019-05-20T03:33:27.022Z,15.21
2019-05-20T03:34:45.487Z,15.38
2019-05-20T03:35:27.025Z,15.31
2019-05-20T03:36:27.036Z,15.31
2019-05-20T03:37:27.050Z,15.39
2019-05-20T03:38:27.058Z,15.41
2019-05-20T03:39:27.066Z,15.38
2019-05-20T03:40:27.078Z,15.43
2019-05-20T03:41:27.088Z,15.45
2019-05-20T03:42:27.089Z,15.39
2019-05-20T03:43:27.102Z,15.46
2019-05-20T03:44:27.111Z,15.39
2019-05-20T03:45:27.116Z,15.39
2019-05-20T03:46:27.125Z,15.39
2019-05-20T03:47:27.136Z,15.41
2019-05-20T03:48:27.145Z,15.41
2019-05-20T03:49:27.150Z,15.42
2019-05-20T03:50:27.164Z,15.39
2019-05-20T03:51:27.173Z,15.39
2019-05-20T03:52:27.178Z,15.28
2019-05-20T03:53:27.190Z,15.35
2019-05-20T03:54:27.195Z,15.33
2019-05-20T03:55:27.213Z,15.38
2019-05-20T03:56:27.213Z,15.27
2019-05-20T03:57:27.224Z,15.36
2019-05-20T03:58:27.237Z,15.27
2019-05-20T03:59:27.242Z,15.26
2019-05-20T04:00:27.253Z,15.31
2019-05-20T04:01:27.267Z,15.24
2019-05-20T04:02:27.271Z,15.27
2019-05-20T04:03:27.278Z,15.27
2019-05-20T04:04:27.288Z,15.23
2019-05-20T04:05:27.301Z,15.21
2019-05-20T04:06:27.314Z,15.24
2019-05-20T04:07:27.312Z,15.33
2019-05-20T04:08:27.320Z,15.27
2019-05-20T04:09:27.332Z,15.24
2019-05-20T04:10:27.350Z,15.28
2019-05-20T04:11:27.349Z,15.27
2019-05-20T04:12:27.358Z,15.24
2019-05-20T04:13:27.370Z,15.31
2019-05-20T04:14:27.398Z,15.23
2019-05-20T04:15:27.384Z,15.27
2019-05-20T04:16:27.394Z,15.27
2019-05-20T04:17:27.404Z,15.30
2019-05-20T04:18:27.411Z,15.35
2019-05-20T04:19:27.417Z,15.27
2019-05-20T04:20:27.434Z,15.39
2019-05-20T04:21:27.436Z,15.30
2019-05-20T04:22:27.802Z,15.24
2019-05-20T04:23:27.455Z,15.26
2019-05-20T04:24:27.465Z,15.31
2019-05-20T04:25:27.475Z,15.36
2019-05-20T04:26:27.480Z,15.42
2019-05-20T04:27:27.490Z,15.35
2019-05-20T04:28:27.506Z,15.35
2019-05-20T04:29:27.514Z,15.41
2019-05-20T04:30:27.527Z,15.39
2019-05-20T04:31:27.526Z,15.38
2019-05-20T04:32:27.540Z,15.38
2019-05-20T04:33:27.548Z,15.43
2019-05-20T04:34:27.552Z,15.43
2019-05-20T04:35:27.562Z,15.38
2019-05-20T04:36:27.568Z,15.41
2019-05-20T04:37:27.591Z,15.39
2019-05-20T04:38:27.589Z,15.35
2019-05-20T04:39:27.608Z,15.41
2019-05-20T04:40:27.607Z,15.35
2019-05-20T04:41:27.615Z,15.35
2019-05-20T04:42:27.625Z,15.35
2019-05-20T04:43:27.638Z,15.39
2019-05-20T04:44:27.643Z,15.31
2019-05-20T04:45:27.658Z,15.36
2019-05-20T04:46:27.665Z,15.38
2019-05-20T04:47:27.672Z,15.33
2019-05-20T04:48:27.685Z,15.38
2019-05-20T04:49:27.688Z,15.33
2019-05-20T04:50:27.697Z,15.41
2019-05-20T04:51:27.711Z,15.30
2019-05-20T04:52:27.719Z,15.41
2019-05-20T04:53:27.725Z,15.39
2019-05-20T04:54:27.744Z,15.42
2019-05-20T04:55:27.737Z,15.35
2019-05-20T04:56:29.340Z,15.42
2019-05-20T04:57:27.768Z,15.30
2019-05-20T04:58:27.767Z,15.49
2019-05-20T04:59:27.780Z,15.35
2019-05-20T05:00:27.789Z,15.31
2019-05-20T05:01:27.800Z,15.38
2019-05-20T05:02:27.803Z,15.45
2019-05-20T05:03:27.823Z,15.41
2019-05-20T05:04:27.821Z,15.41
2019-05-20T05:05:37.276Z,15.42
2019-05-20T05:06:27.835Z,15.41
2019-05-20T05:07:27.852Z,15.49
2019-05-20T05:08:27.859Z,15.45
2019-05-20T05:09:27.869Z,15.41
2019-05-20T05:10:27.880Z,15.39
2019-05-20T05:11:27.894Z,15.41
2019-05-20T05:12:27.893Z,15.42
2019-05-20T05:13:27.903Z,15.46
2019-05-20T05:14:27.913Z,15.39
2019-05-20T05:15:27.920Z,15.38
2019-05-20T05:16:27.930Z,15.39
2019-05-20T05:17:27.941Z,15.41
2019-05-20T05:18:27.952Z,15.46
2019-05-20T05:19:27.958Z,15.42
2019-05-20T05:20:27.965Z,15.42
2019-05-20T05:21:27.975Z,15.43
2019-05-20T05:22:27.987Z,15.45
2019-05-20T05:23:27.998Z,15.45
2019-05-20T05:24:28.009Z,15.52
2019-05-20T05:25:28.011Z,15.52
2019-05-20T05:26:28.020Z,15.52
2019-05-20T05:27:28.039Z,15.64
2019-05-20T05:28:28.037Z,15.63
2019-05-20T05:29:28.046Z,15.60
2019-05-20T05:30:28.054Z,15.56
2019-05-20T05:31:28.064Z,15.57
2019-05-20T05:32:28.074Z,15.56
2019-05-20T05:33:28.093Z,15.59
2019-05-20T05:34:28.092Z,15.60
2019-05-20T05:35:28.102Z,15.57
2019-05-20T05:36:28.112Z,15.67
2019-05-20T05:37:28.124Z,15.61
2019-05-20T05:38:28.127Z,15.68
2019-05-20T05:39:28.134Z,15.68
2019-05-20T05:40:28.145Z,15.70
2019-05-20T05:41:28.156Z,15.70
2019-05-20T05:42:28.163Z,15.64
2019-05-20T05:43:28.176Z,15.68
2019-05-20T05:44:28.181Z,15.67
2019-05-20T05:45:29.294Z,15.82
2019-05-20T05:46:28.200Z,15.79
2019-05-20T05:47:28.210Z,15.92
2019-05-20T05:48:28.220Z,15.82
2019-05-20T05:49:28.231Z,15.89
2019-05-20T05:50:28.238Z,15.96
2019-05-20T05:51:28.247Z,15.93
2019-05-20T05:52:28.251Z,16.06
2019-05-20T05:53:28.266Z,16.01
2019-05-20T05:54:28.281Z,15.93
2019-05-20T05:55:28.283Z,16.03
2019-05-20T05:56:28.293Z,16.06
2019-05-20T05:57:28.299Z,16.11
2019-05-20T05:58:28.309Z,16.11
2019-05-20T05:59:28.318Z,16.18
2019-05-20T06:00:28.327Z,16.20
2019-05-20T06:01:28.334Z,16.25
2019-05-20T06:02:28.348Z,16.25
2019-05-20T06:03:28.450Z,16.18
2019-05-20T06:04:28.365Z,16.18
2019-05-20T06:05:31.548Z,16.15
2019-05-20T06:06:28.385Z,16.20
2019-05-20T06:07:28.391Z,16.20
2019-05-20T06:08:28.402Z,16.25
2019-05-20T06:09:28.417Z,16.26
2019-05-20T06:10:28.419Z,16.34
2019-05-20T06:11:28.432Z,16.34
2019-05-20T06:12:28.443Z,16.35
2019-05-20T06:13:28.448Z,16.31
2019-05-20T06:14:28.463Z,16.34
2019-05-20T06:15:28.468Z,16.33
2019-05-20T06:16:36.452Z,16.35
2019-05-20T06:17:28.488Z,16.40
2019-05-20T06:18:28.495Z,16.40
2019-05-20T06:19:28.508Z,16.26
2019-05-20T06:20:28.512Z,16.30
2019-05-20T06:21:28.523Z,16.30
2019-05-20T06:22:28.530Z,16.30
2019-05-20T06:23:28.538Z,16.26
2019-05-20T06:24:28.548Z,16.26
2019-05-20T06:25:28.569Z,16.27
2019-05-20T06:26:28.572Z,16.30
2019-05-20T06:27:28.610Z,16.26
2019-05-20T06:28:28.589Z,16.25
2019-05-20T06:29:28.626Z,16.25
2019-05-20T06:30:28.634Z,16.34
2019-05-20T06:31:28.619Z,16.38
2019-05-20T06:32:28.628Z,16.40
2019-05-20T06:33:28.642Z,16.38
2019-05-20T06:34:28.643Z,16.45
2019-05-20T06:35:28.653Z,16.40
2019-05-20T06:36:28.670Z,16.41
2019-05-20T06:37:28.672Z,16.38
2019-05-20T06:38:28.679Z,16.37
2019-05-20T06:39:28.694Z,16.35
2019-05-20T06:40:28.704Z,16.41
2019-05-20T06:41:28.710Z,16.34
2019-05-20T06:42:28.714Z,16.31
2019-05-20T06:43:28.726Z,16.40
2019-05-20T06:44:28.738Z,16.25
2019-05-20T06:45:28.777Z,16.20
2019-05-20T06:46:28.749Z,16.14
2019-05-20T06:47:28.765Z,16.11
2019-05-20T06:48:28.772Z,16.12
2019-05-20T06:49:28.788Z,16.01
2019-05-20T06:50:29.737Z,16.06
2019-05-20T06:51:28.806Z,15.92
2019-05-20T06:52:35.996Z,15.89
2019-05-20T06:53:28.821Z,15.85
2019-05-20T06:54:28.829Z,15.84
2019-05-20T06:55:28.842Z,15.86
2019-05-20T06:56:28.848Z,15.70
2019-05-20T06:57:28.860Z,15.67
2019-05-20T06:58:28.866Z,15.66
2019-05-20T06:59:28.874Z,15.74
2019-05-20T07:00:28.880Z,15.67
2019-05-20T07:01:28.891Z,15.64
2019-05-20T07:02:28.909Z,15.66
2019-05-20T07:03:28.911Z,15.61
2019-05-20T07:04:28.925Z,15.57
2019-05-20T07:05:28.933Z,15.57
2019-05-20T07:06:44.890Z,15.52
2019-05-20T07:07:28.954Z,15.49
2019-05-20T07:08:28.969Z,15.61
2019-05-20T07:09:28.968Z,15.54
2019-05-20T07:10:28.977Z,15.41
2019-05-20T07:11:29.042Z,15.41
2019-05-20T07:12:40.598Z,15.48
2019-05-20T07:13:29.003Z,15.36
2019-05-20T07:14:29.016Z,15.39
2019-05-20T07:15:29.022Z,15.41
2019-05-20T07:16:29.028Z,15.38
2019-05-20T07:17:29.039Z,15.27
2019-05-20T07:18:29.085Z,15.31
2019-05-20T07:19:29.059Z,15.35
2019-05-20T07:20:29.084Z,15.38
2019-05-20T07:21:29.073Z,15.33
2019-05-20T07:22:29.083Z,15.38
2019-05-20T07:23:29.094Z,15.24
2019-05-20T07:24:29.101Z,15.38
2019-05-20T07:25:29.313Z,15.38
2019-05-20T07:26:29.135Z,15.39
2019-05-20T07:27:29.142Z,15.41
2019-05-20T07:28:29.159Z,15.46
2019-05-20T07:29:29.159Z,15.61
2019-05-20T07:30:29.208Z,15.61
2019-05-20T07:31:29.165Z,15.70
2019-05-20T07:32:29.193Z,15.81
2019-05-20T07:33:29.183Z,15.75
2019-05-20T07:34:29.192Z,15.85
2019-05-20T07:35:30.986Z,15.94
2019-05-20T07:36:29.220Z,15.94
2019-05-20T07:37:29.234Z,16.04
2019-05-20T07:38:29.234Z,16.04
2019-05-20T07:39:29.233Z,16.12
2019-05-20T07:40:29.253Z,16.22
2019-05-20T07:41:29.257Z,16.18
2019-05-20T07:42:29.263Z,16.14
2019-05-20T07:43:29.275Z,16.20
2019-05-20T07:44:29.289Z,16.14
2019-05-20T07:45:29.290Z,16.00
2019-05-20T07:46:29.317Z,16.03
2019-05-20T07:47:29.310Z,15.84
2019-05-20T07:48:29.351Z,15.99
2019-05-20T07:49:29.331Z,15.93
2019-05-20T07:50:29.338Z,15.93
2019-05-20T07:51:29.345Z,15.85
2019-05-20T07:52:29.361Z,15.93
2019-05-20T07:53:29.440Z,15.93
2019-05-20T07:54:29.374Z,15.92
2019-05-20T07:55:29.378Z,15.97
2019-05-20T07:56:29.392Z,15.99
2019-05-20T07:57:29.400Z,16.14
2019-05-20T07:58:29.432Z,16.15
2019-05-20T07:59:29.441Z,15.99
2019-05-20T08:00:29.449Z,16.03
2019-05-20T08:01:29.439Z,16.03
2019-05-20T08:02:29.495Z,16.07
2019-05-20T08:03:29.467Z,16.11
2019-05-20T08:04:29.902Z,16.14
2019-05-20T08:05:29.472Z,16.14
2019-05-20T08:06:29.479Z,16.20
2019-05-20T08:07:49.902Z,16.00
2019-05-20T08:08:29.497Z,16.14
2019-05-20T08:09:29.548Z,15.97
2019-05-20T08:10:29.523Z,16.12
2019-05-20T08:11:29.535Z,16.09
2019-05-20T08:12:29.554Z,16.16
2019-05-20T08:13:29.550Z,16.16
2019-05-20T08:14:29.557Z,16.00
2019-05-20T08:15:29.560Z,16.01
2019-05-20T08:16:29.606Z,16.12
2019-05-20T08:17:29.587Z,16.11
2019-05-20T08:18:29.593Z,16.11
2019-05-20T08:19:29.609Z,16.06
2019-05-20T08:20:29.610Z,16.16
2019-05-20T08:21:29.620Z,16.12
2019-05-20T08:22:29.626Z,16.11
2019-05-20T08:23:29.632Z,16.15
2019-05-20T08:24:29.646Z,16.12
2019-05-20T08:25:29.654Z,16.35
2019-05-20T08:26:29.709Z,16.31
2019-05-20T08:27:29.676Z,16.41
2019-05-20T08:28:29.685Z,16.52
2019-05-20T08:29:29.690Z,16.48
2019-05-20T08:30:29.702Z,16.53
2019-05-20T08:31:29.718Z,16.53
2019-05-20T08:32:29.727Z,16.59
2019-05-20T08:33:29.725Z,16.70
2019-05-20T08:34:29.765Z,16.71
2019-05-20T08:35:29.748Z,16.83
2019-05-20T08:36:29.761Z,16.77
2019-05-20T08:37:44.310Z,16.75
2019-05-20T08:38:29.773Z,16.81
2019-05-20T08:39:29.786Z,16.85
2019-05-20T08:40:29.787Z,16.80
2019-05-20T08:41:29.832Z,16.73
2019-05-20T08:42:29.812Z,16.78
2019-05-20T08:43:29.823Z,16.80
2019-05-20T08:44:29.829Z,16.74
2019-05-20T08:45:29.845Z,16.77
2019-05-20T08:46:29.852Z,16.74
2019-05-20T08:47:29.858Z,16.78
2019-05-20T08:48:29.871Z,16.85
2019-05-20T08:49:29.884Z,16.85
2019-05-20T08:50:29.887Z,16.90
2019-05-20T08:51:29.897Z,16.99
2019-05-20T08:52:29.915Z,16.99
2019-05-20T08:53:29.921Z,17.08
2019-05-20T08:54:29.922Z,17.13
2019-05-20T08:55:29.941Z,17.11
2019-05-20T08:56:29.946Z,17.15
2019-05-20T08:57:29.962Z,17.18
2019-05-20T08:58:29.986Z,17.22
2019-05-20T08:59:29.980Z,17.40
2019-05-20T09:00:29.981Z,17.30
2019-05-20T09:01:30.006Z,17.47
2019-05-20T09:02:30.050Z,17.51
2019-05-20T09:03:30.607Z,17.57
2019-05-20T09:04:30.018Z,17.47
2019-05-20T09:05:30.045Z,17.30
2019-05-20T09:06:30.062Z,17.48
2019-05-20T09:07:30.057Z,17.64
2019-05-20T09:08:30.067Z,17.57
2019-05-20T09:09:30.111Z,17.76
2019-05-20T09:10:30.080Z,17.54
2019-05-20T09:11:30.093Z,17.57
2019-05-20T09:12:30.106Z,17.57
2019-05-20T09:13:30.115Z,17.64
2019-05-20T09:14:30.126Z,17.59
2019-05-20T09:15:30.179Z,17.63
2019-05-20T09:16:30.173Z,17.64
2019-05-20T09:17:30.166Z,17.74
2019-05-20T09:18:30.161Z,17.78
2019-05-20T09:19:30.396Z,17.66
2019-05-20T09:20:30.180Z,17.64
2019-05-20T09:21:30.196Z,17.57
2019-05-20T09:22:30.229Z,17.59
2019-05-20T09:23:30.215Z,17.62
2019-05-20T09:24:30.279Z,17.55
2019-05-20T09:25:30.238Z,17.47
2019-05-20T09:26:30.242Z,17.48
2019-05-20T09:27:30.251Z,17.46
2019-05-20T09:28:30.262Z,17.55
2019-05-20T09:29:30.290Z,17.46
2019-05-20T09:30:30.286Z,17.44
2019-05-20T09:31:30.300Z,17.55
2019-05-20T09:32:30.303Z,17.46
2019-05-20T09:33:30.317Z,17.44
2019-05-20T09:34:30.321Z,17.46
2019-05-20T09:35:30.350Z,17.44
2019-05-20T09:36:30.342Z,17.57
2019-05-20T09:37:30.353Z,17.36
2019-05-20T09:38:30.355Z,17.40
2019-05-20T09:39:30.368Z,17.43
2019-05-20T09:40:30.377Z,17.33
2019-05-20T09:41:30.400Z,17.29
2019-05-20T09:42:30.403Z,17.33
2019-05-20T09:43:30.407Z,17.33
2019-05-20T09:44:30.417Z,17.23
2019-05-20T09:45:30.434Z,17.17
2019-05-20T09:46:30.439Z,17.10
2019-05-20T09:47:30.447Z,17.13
2019-05-20T09:48:30.461Z,17.07
2019-05-20T09:49:30.468Z,17.08
2019-05-20T09:50:30.482Z,17.03
2019-05-20T09:51:30.490Z,16.90
2019-05-20T09:52:30.503Z,16.86
2019-05-20T09:53:30.505Z,16.85
2019-05-20T09:54:30.520Z,16.81
2019-05-20T09:55:30.535Z,16.83
2019-05-20T09:56:30.537Z,16.74
2019-05-20T09:57:30.545Z,16.70
2019-05-20T09:58:30.557Z,16.78
2019-05-20T09:59:42.566Z,16.62
2019-05-20T10:00:30.575Z,16.63
2019-05-20T10:01:30.591Z,16.75
2019-05-20T10:02:37.555Z,16.67
2019-05-20T10:03:30.602Z,16.62
2019-05-20T10:04:30.612Z,16.53
2019-05-20T10:05:30.625Z,16.53
2019-05-20T10:06:30.633Z,16.56
2019-05-20T10:07:30.644Z,16.50
2019-05-20T10:08:37.924Z,16.49
2019-05-20T10:09:30.659Z,16.52
2019-05-20T10:10:30.670Z,16.48
2019-05-20T10:11:30.681Z,16.62
2019-05-20T10:12:45.324Z,16.55
2019-05-20T10:13:30.695Z,16.53
2019-05-20T10:14:30.712Z,16.42
2019-05-20T10:15:30.716Z,16.49
2019-05-20T10:16:30.727Z,16.52
2019-05-20T10:17:30.737Z,16.49
2019-05-20T10:18:37.368Z,16.49
2019-05-20T10:19:30.754Z,16.40
2019-05-20T10:20:30.767Z,16.38
2019-05-20T10:21:30.775Z,16.35
2019-05-20T10:22:31.980Z,16.35
2019-05-20T10:23:30.792Z,16.26
2019-05-20T10:24:30.818Z,16.26
2019-05-20T10:25:30.814Z,16.18
2019-05-20T10:26:30.818Z,16.27
2019-05-20T10:27:30.828Z,16.20
2019-05-20T10:28:30.839Z,16.23
2019-05-20T10:29:30.849Z,16.27
2019-05-20T10:30:30.860Z,16.22
2019-05-20T10:31:30.866Z,16.26
2019-05-20T10:32:30.875Z,16.27
2019-05-20T10:33:30.886Z,16.20
2019-05-20T10:34:30.895Z,16.23
2019-05-20T10:35:30.906Z,16.15
2019-05-20T10:36:30.915Z,16.22
2019-05-20T10:37:30.929Z,16.22
2019-05-20T10:38:30.929Z,16.30
2019-05-20T10:39:30.941Z,16.33
2019-05-20T10:40:30.951Z,16.26
2019-05-20T10:41:30.975Z,16.22
2019-05-20T10:42:30.967Z,16.30
2019-05-20T10:43:30.980Z,16.18
2019-05-20T10:44:31.004Z,16.07
2019-05-20T10:45:30.991Z,16.09
2019-05-20T10:46:31.009Z,16.11
2019-05-20T10:47:31.026Z,16.01
2019-05-20T10:48:31.039Z,15.97
2019-05-20T10:49:31.065Z,16.01
2019-05-20T10:50:31.050Z,16.01
2019-05-20T10:51:31.051Z,16.03
2019-05-20T10:52:31.062Z,15.94
2019-05-20T10:53:31.076Z,16.04
2019-05-20T10:54:31.080Z,16.06
2019-05-20T10:55:31.117Z,16.15
2019-05-20T10:56:31.099Z,16.07
2019-05-20T10:57:31.103Z,16.15
2019-05-20T10:58:31.137Z,16.14
2019-05-20T10:59:31.124Z,16.22
2019-05-20T11:00:31.130Z,16.26
2019-05-20T11:01:31.142Z,16.33
2019-05-20T11:02:31.441Z,16.27
2019-05-20T11:03:31.160Z,16.27
2019-05-20T11:04:35.307Z,16.37
2019-05-20T11:05:31.191Z,16.42
2019-05-20T11:06:31.189Z,16.42
2019-05-20T11:07:31.194Z,16.52
2019-05-20T11:08:31.209Z,16.59
2019-05-20T11:09:31.212Z,16.62
2019-05-20T11:10:31.224Z,16.62
2019-05-20T11:11:31.231Z,16.60
2019-05-20T11:12:31.252Z,16.75
2019-05-20T11:13:31.244Z,16.89
2019-05-20T11:14:31.262Z,17.04
2019-05-20T11:15:31.269Z,17.22
2019-05-20T11:16:31.278Z,17.26
2019-05-20T11:17:31.297Z,17.47
2019-05-20T11:18:31.299Z,17.70
2019-05-20T11:19:31.307Z,17.88
2019-05-20T11:20:31.319Z,18.04
2019-05-20T11:21:31.325Z,18.15
2019-05-20T11:22:31.334Z,18.29
2019-05-20T11:23:31.386Z,18.37
2019-05-20T11:24:31.349Z,18.57
2019-05-20T11:25:31.443Z,18.84
2019-05-20T11:26:31.372Z,18.95
2019-05-20T11:27:31.386Z,18.99
2019-05-20T11:28:31.390Z,19.05
2019-05-20T11:29:31.402Z,18.95
2019-05-20T11:30:31.416Z,18.99
2019-05-20T11:31:31.426Z,18.95
2019-05-20T11:32:31.435Z,18.86
2019-05-20T11:33:31.449Z,18.92
2019-05-20T11:34:31.485Z,18.91
2019-05-20T11:35:31.478Z,19.01
2019-05-20T11:36:31.475Z,19.02
2019-05-20T11:37:31.489Z,19.01
2019-05-20T11:38:31.549Z,19.13
2019-05-20T11:39:34.024Z,19.05
2019-05-20T11:40:31.521Z,18.90
2019-05-20T11:41:54.515Z,18.97
2019-05-20T11:42:31.542Z,18.86
2019-05-20T11:43:31.547Z,19.05
2019-05-20T11:44:31.554Z,19.05
2019-05-20T11:45:31.566Z,18.94
2019-05-20T11:46:31.581Z,18.98
2019-05-20T11:47:31.595Z,18.98
2019-05-20T11:48:31.628Z,19.05
2019-05-20T11:49:31.615Z,18.90
2019-05-20T11:50:31.636Z,18.70
2019-05-20T11:51:31.635Z,18.58
2019-05-20T11:52:31.657Z,18.49
2019-05-20T11:53:31.657Z,18.43
2019-05-20T11:54:31.667Z,18.42
2019-05-20T11:55:31.737Z,18.36
2019-05-20T11:56:31.691Z,18.43
2019-05-20T11:57:31.706Z,18.55
2019-05-20T11:58:31.708Z,18.58
2019-05-20T11:59:31.728Z,18.47
2019-05-20T12:00:31.773Z,18.47
2019-05-20T12:01:31.743Z,18.62
2019-05-20T12:02:31.752Z,18.62
2019-05-20T12:03:31.763Z,18.44
2019-05-20T12:04:31.771Z,18.36
2019-05-20T12:05:31.783Z,18.36
2019-05-20T12:06:31.796Z,18.33
2019-05-20T12:07:31.802Z,18.27
2019-05-20T12:08:31.811Z,18.34
2019-05-20T12:09:47.812Z,18.27
2019-05-20T12:10:31.838Z,18.18
2019-05-20T12:11:31.882Z,18.18
2019-05-20T12:12:31.852Z,18.09
2019-05-20T12:13:31.863Z,18.04
2019-05-20T12:14:31.933Z,18.02
2019-05-20T12:15:31.889Z,18.09
2019-05-20T12:16:31.898Z,18.00
2019-05-20T12:17:31.906Z,17.94
2019-05-20T12:18:31.920Z,17.99
2019-05-20T12:19:31.929Z,17.85
2019-05-20T12:20:31.939Z,17.94
2019-05-20T12:21:31.965Z,17.99
2019-05-20T12:22:31.983Z,18.03
2019-05-20T12:23:31.975Z,17.95
2019-05-20T12:24:31.986Z,17.95
2019-05-20T12:25:31.993Z,17.99
2019-05-20T12:26:32.008Z,17.87
2019-05-20T12:27:32.046Z,17.89
2019-05-20T12:28:32.021Z,17.87
2019-05-20T12:29:32.047Z,17.85
2019-05-20T12:30:32.053Z,17.84
2019-05-20T12:31:32.055Z,17.66
2019-05-20T12:32:32.059Z,17.57
2019-05-20T12:33:32.074Z,17.46
2019-05-20T12:34:32.158Z,17.50
2019-05-20T12:35:32.099Z,17.38
2019-05-20T12:36:32.102Z,17.26
2019-05-20T12:37:32.119Z,17.22
2019-05-20T12:38:32.125Z,17.22
2019-05-20T12:39:32.142Z,17.13
2019-05-20T12:40:32.162Z,17.14
2019-05-20T12:41:32.205Z,17.13
2019-05-20T12:42:32.189Z,17.11
2019-05-20T12:43:32.190Z,17.20
2019-05-20T12:44:32.178Z,17.14
2019-05-20T12:45:32.195Z,17.11
2019-05-20T12:46:32.202Z,17.07
2019-05-20T12:47:32.221Z,17.00
2019-05-20T12:48:32.220Z,17.04
2019-05-20T12:49:32.380Z,16.88
2019-05-20T12:50:32.255Z,16.83
2019-05-20T12:51:32.258Z,16.78
2019-05-20T12:52:32.264Z,16.78